map of OMD home
Great Circle Mapper logo
OMD - Airport
Location
City:  Oranjemund, Namibia
ICAO / IATA:FYOG / OMD

Details
Type:Airport (Aerodrome, Airfield)
Latitude:2835'05"S (-28.584721)
Longitude:1626'48"E (16.446667)
Datum:WGS 1984
Elevation:14 ft (4 m)
Variation:19.10W (WMM2015 magnetic declination)
-0.00 annual change
Runways:3
Longest:5252 × 59 ft (1601 × 18 m), paved

Time
Time Zone:UTC+1 (DST+2)
Local Time:

Weather
METAR:FYOG 011500Z AUTO 19019KT //// // ////// 14/11 Q1022

Related Locations
Nearby:
Farthest:PHHF: 12067 mi / 19419 km
Tern Island [French Frigate Shoals Airport], Hawaii, HI, US

Find:

   beyond  
but within

Other Information
Maps:
NOTAMs:
Links:
Sources:

  
flag of Namibia   

Sectional Chart

Flight Planning
at skyvector.com

Satellite Image

Google Maps Satellite view

 

Copyright © 2004-2015 Karl L. Swartz. All rights reserved.
The Great Circle Mapper name and logo are trademarks of the Great Circle Mapper.
All other trademarks mentioned herein belong to their respective owners.
Please see credits for attibutions and further copyright information.

  Follow gcmap on Facebook Follow gcmap on Twitter Follow gcmap on Google+

hCard Microformat

Geo Microformat